createdAt,value
2022-11-21T00:01:19.982Z,99151.88
2022-11-21T00:03:48.277Z,99028.22
2022-11-21T00:06:16.906Z,99153.22
2022-11-21T00:08:45.212Z,99156.78
2022-11-21T00:11:13.791Z,99138.44
2022-11-21T00:13:42.196Z,99154.09
2022-11-21T00:16:12.282Z,99081.72
2022-11-21T00:18:42.333Z,99109.38
2022-11-21T00:21:12.421Z,99149.50
2022-11-21T00:23:40.830Z,99078.28
2022-11-21T00:26:10.342Z,99144.28
2022-11-21T00:28:38.831Z,99143.91
2022-11-21T00:31:07.635Z,99146.53
2022-11-21T00:33:36.837Z,99079.53
2022-11-21T00:36:10.579Z,99126.97
2022-11-21T00:38:38.929Z,99146.44
2022-11-21T00:41:07.518Z,99073.25
2022-11-21T00:43:35.852Z,99158.69
2022-11-21T00:46:04.427Z,99148.13
2022-11-21T00:48:33.441Z,99160.38
2022-11-21T00:51:01.746Z,99149.63
2022-11-21T00:53:31.321Z,99158.13
2022-11-21T00:55:59.871Z,99122.16
2022-11-21T00:58:28.169Z,99153.00
2022-11-21T01:01:04.696Z,99104.41
2022-11-21T01:03:35.150Z,99149.56
2022-11-21T01:06:05.111Z,99172.25
2022-11-21T01:08:36.835Z,99174.94
2022-11-21T01:11:05.629Z,99174.78
2022-11-21T01:13:33.757Z,99167.13
2022-11-21T01:16:05.260Z,99167.19
2022-11-21T01:18:33.598Z,99163.88
2022-11-21T01:21:02.603Z,99145.69
2022-11-21T01:23:30.871Z,99162.59
2022-11-21T01:26:04.453Z,99117.88
2022-11-21T01:28:32.894Z,99176.06
2022-11-21T01:31:08.062Z,99173.38
2022-11-21T01:33:36.939Z,99168.25
2022-11-21T01:36:11.201Z,99070.06
2022-11-21T01:38:39.875Z,99136.25
2022-11-21T01:41:10.041Z,99153.59
2022-11-21T01:43:38.187Z,99171.03
2022-11-21T01:46:13.575Z,99045.66
2022-11-21T01:48:47.500Z,99171.72
2022-11-21T01:51:21.403Z,99110.00
2022-11-21T01:53:54.813Z,99143.06
2022-11-21T01:56:25.771Z,99176.00
2022-11-21T01:58:57.485Z,99136.91
2022-11-21T02:01:25.981Z,99167.31
2022-11-21T02:03:55.698Z,99194.56
2022-11-21T02:06:25.769Z,99081.38
2022-11-21T02:08:53.855Z,99142.91
2022-11-21T02:11:30.788Z,99184.63
2022-11-21T02:13:59.920Z,99170.84
2022-11-21T02:16:29.495Z,99187.59
2022-11-21T02:18:57.724Z,99187.72
2022-11-21T02:21:40.323Z,99177.09
2022-11-21T02:24:18.386Z,99160.50
2022-11-21T02:26:49.412Z,99190.91
2022-11-21T02:29:18.178Z,99190.97
2022-11-21T02:31:46.508Z,99197.88
2022-11-21T02:34:14.812Z,99196.09
2022-11-21T02:36:45.382Z,99200.50
2022-11-21T02:39:19.948Z,99190.75
2022-11-21T02:41:58.867Z,99190.78
2022-11-21T02:44:32.906Z,99154.38
2022-11-21T02:47:00.893Z,99166.50
2022-11-21T02:49:36.701Z,99200.56
2022-11-21T02:52:05.023Z,99193.53
2022-11-21T02:54:33.168Z,99195.31
2022-11-21T02:57:02.572Z,99197.22
2022-11-21T02:59:30.610Z,99202.44
2022-11-21T03:01:59.821Z,99206.03
2022-11-21T03:04:29.217Z,99160.75
2022-11-21T03:06:57.751Z,99205.25
2022-11-21T03:09:25.799Z,99207.81
2022-11-21T03:11:53.729Z,99206.16
2022-11-21T03:14:23.082Z,99192.28
2022-11-21T03:16:51.052Z,99204.41
2022-11-21T03:19:19.021Z,99208.69
2022-11-21T03:21:47.015Z,99209.72
2022-11-21T03:24:14.903Z,99209.72
2022-11-21T03:26:42.849Z,99215.09
2022-11-21T03:29:10.911Z,99209.09
2022-11-21T03:31:40.270Z,99155.22
2022-11-21T03:34:09.000Z,99218.91
2022-11-21T03:36:37.249Z,99170.09
2022-11-21T03:39:05.912Z,99208.72
2022-11-21T03:41:34.094Z,99223.72
2022-11-21T03:44:05.600Z,99196.00
2022-11-21T03:46:35.543Z,99227.56
2022-11-21T03:49:05.664Z,99233.81
2022-11-21T03:51:33.990Z,99244.38
2022-11-21T03:54:02.586Z,99243.56
2022-11-21T03:56:30.823Z,99252.34
2022-11-21T03:58:59.096Z,99253.22
2022-11-21T04:01:27.313Z,99263.78
2022-11-21T04:03:56.873Z,99255.91
2022-11-21T04:06:27.062Z,99245.44
2022-11-21T04:08:55.190Z,99258.47
2022-11-21T04:11:24.646Z,99265.63
2022-11-21T04:13:52.931Z,99264.72
2022-11-21T04:16:21.355Z,99272.56
2022-11-21T04:18:49.388Z,99267.25
2022-11-21T04:21:17.716Z,99269.97
2022-11-21T04:23:47.051Z,99260.44
2022-11-21T04:26:15.151Z,99251.75
2022-11-21T04:28:43.073Z,99283.91
2022-11-21T04:31:11.589Z,99163.53
2022-11-21T04:33:40.566Z,99279.47
2022-11-21T04:36:09.710Z,99274.19
2022-11-21T04:38:38.316Z,99265.50
2022-11-21T04:41:07.735Z,99275.97
2022-11-21T04:43:35.833Z,99284.75
2022-11-21T04:46:03.888Z,99224.44
2022-11-21T04:48:32.652Z,99247.13
2022-11-21T04:51:00.926Z,99282.84
2022-11-21T04:53:29.139Z,99282.91
2022-11-21T04:55:57.006Z,99262.72
2022-11-21T04:58:26.432Z,99278.50
2022-11-21T05:00:54.468Z,99258.50
2022-11-21T05:03:22.568Z,99232.38
2022-11-21T05:05:50.623Z,99275.06
2022-11-21T05:08:18.491Z,99271.50
2022-11-21T05:11:03.842Z,99216.63
2022-11-21T05:13:33.235Z,99264.75
2022-11-21T05:16:01.239Z,99243.00
2022-11-21T05:18:29.643Z,99260.50
2022-11-21T05:20:58.012Z,99272.69
2022-11-21T05:23:25.995Z,99240.50
2022-11-21T05:25:53.971Z,99276.25
2022-11-21T05:28:22.028Z,99255.31
2022-11-21T05:30:51.738Z,99260.63
2022-11-21T05:33:20.353Z,99255.34
2022-11-21T05:35:48.780Z,99266.66
2022-11-21T05:38:16.804Z,99275.38
2022-11-21T05:40:44.719Z,99268.41
2022-11-21T05:43:30.594Z,99266.63
2022-11-21T05:46:00.199Z,99263.94
2022-11-21T05:48:28.368Z,99265.66
2022-11-21T05:50:56.402Z,99269.09
2022-11-21T05:53:24.416Z,99271.72
2022-11-21T05:55:52.428Z,99225.53
2022-11-21T05:58:20.457Z,99270.78
2022-11-21T06:00:48.670Z,99228.97
2022-11-21T06:03:30.295Z,99279.53
2022-11-21T06:06:03.774Z,99242.75
2022-11-21T06:08:34.588Z,99269.81
2022-11-21T06:11:03.253Z,99240.09
2022-11-21T06:13:31.446Z,99288.03
2022-11-21T06:16:04.557Z,99192.25
2022-11-21T06:18:35.997Z,99293.41
2022-11-21T06:21:05.785Z,99292.50
2022-11-21T06:23:34.603Z,99287.34
2022-11-21T06:26:04.505Z,99257.72
2022-11-21T06:28:35.023Z,99289.94
2022-11-21T06:31:07.080Z,99230.59
2022-11-21T06:33:37.187Z,99117.25
2022-11-21T06:36:05.658Z,99296.84
2022-11-21T06:38:33.935Z,99304.66
2022-11-21T06:41:05.615Z,99304.59
2022-11-21T06:43:33.716Z,99301.97
2022-11-21T06:46:03.397Z,99304.59
2022-11-21T06:48:31.685Z,99289.75
2022-11-21T06:51:05.757Z,99301.97
2022-11-21T06:53:34.025Z,99306.38
2022-11-21T06:56:02.660Z,99293.25
2022-11-21T06:58:31.444Z,99309.78
2022-11-21T07:01:00.005Z,99306.38
2022-11-21T07:03:28.276Z,99317.84
2022-11-21T07:05:59.571Z,99277.66
2022-11-21T07:08:29.160Z,99286.47
2022-11-21T07:11:23.655Z,99311.59
2022-11-21T07:13:45.562Z,99320.31
2022-11-21T07:16:15.020Z,99245.34
2022-11-21T07:18:44.532Z,99298.53
2022-11-21T07:21:13.307Z,99328.09
2022-11-21T07:23:42.813Z,99330.72
2022-11-21T07:26:12.332Z,99312.47
2022-11-21T07:28:40.372Z,99273.28
2022-11-21T07:31:13.925Z,99253.19
2022-11-21T07:33:43.694Z,99336.97
2022-11-21T07:36:11.904Z,99328.34
2022-11-21T07:38:41.624Z,99338.69
2022-11-21T07:41:11.613Z,99286.31
2022-11-21T07:43:39.764Z,99331.63
2022-11-21T07:46:07.660Z,99325.72
2022-11-21T07:48:35.766Z,99344.75
2022-11-21T07:51:06.159Z,99329.00
2022-11-21T07:53:34.410Z,99270.72
2022-11-21T07:56:02.452Z,99329.25
2022-11-21T07:58:32.034Z,99207.19
2022-11-21T08:00:59.960Z,99343.06
2022-11-21T08:03:28.252Z,99327.38
2022-11-21T08:05:56.130Z,99334.28
2022-11-21T08:08:24.113Z,99334.28
2022-11-21T08:10:52.455Z,99304.59
2022-11-21T08:13:20.531Z,99272.13
2022-11-21T08:15:50.185Z,99333.06
2022-11-21T08:18:20.027Z,99340.06
2022-11-21T08:20:48.197Z,99334.59
2022-11-21T08:23:16.624Z,99328.31
2022-11-21T08:25:45.251Z,99332.56
2022-11-21T08:28:13.905Z,99321.97
2022-11-21T08:30:42.819Z,99323.66
2022-11-21T08:33:12.298Z,99312.28
2022-11-21T08:35:40.413Z,99334.34
2022-11-21T08:38:08.362Z,99328.28
2022-11-21T08:40:36.926Z,99334.22
2022-11-21T08:43:06.729Z,99333.53
2022-11-21T08:45:35.563Z,99327.44
2022-11-21T08:48:04.048Z,99249.25
2022-11-21T08:50:33.494Z,99329.31
2022-11-21T08:53:02.522Z,99331.91
2022-11-21T08:55:31.025Z,99335.50
2022-11-21T08:57:58.968Z,99341.50
2022-11-21T09:00:26.950Z,99305.88
2022-11-21T09:02:54.954Z,99328.38
2022-11-21T09:05:23.017Z,99324.00
2022-11-21T09:07:58.645Z,99288.72
2022-11-21T09:10:27.013Z,99320.81
2022-11-21T09:12:55.102Z,99318.38
2022-11-21T09:15:40.410Z,99265.56
2022-11-21T09:18:08.930Z,99328.66
2022-11-21T09:20:41.229Z,99326.81
2022-11-21T09:23:12.663Z,99314.22
2022-11-21T09:25:41.039Z,99315.72
2022-11-21T09:28:11.082Z,99328.31
2022-11-21T09:30:39.971Z,99324.81
2022-11-21T09:33:09.520Z,99324.72
2022-11-21T09:35:37.864Z,99330.88
2022-11-21T09:38:06.523Z,99329.81
2022-11-21T09:40:36.785Z,99327.13
2022-11-21T09:43:29.408Z,99314.50
2022-11-21T09:46:03.624Z,99328.59
2022-11-21T09:48:34.801Z,99322.28
2022-11-21T09:51:08.569Z,99330.41
2022-11-21T09:53:39.791Z,99313.94
2022-11-21T09:56:13.621Z,99303.09
2022-11-21T09:58:44.873Z,99314.91
2022-11-21T10:01:14.441Z,99312.06
2022-11-21T10:03:45.200Z,99280.28
2022-11-21T10:06:20.552Z,99314.31
2022-11-21T10:08:58.762Z,99306.47
2022-11-21T10:12:01.728Z,99310.22
2022-11-21T10:14:45.904Z,99314.31
2022-11-21T10:17:23.874Z,99267.22
2022-11-21T10:20:04.447Z,99308.53
2022-11-21T10:22:49.609Z,99220.75
2022-11-21T10:25:26.890Z,99262.56
2022-11-21T10:28:01.752Z,99317.56
2022-11-21T10:30:30.393Z,99310.63
2022-11-21T10:33:00.552Z,99303.22
2022-11-21T10:35:32.165Z,99299.16
2022-11-21T10:38:02.131Z,99283.34
2022-11-21T10:40:36.774Z,99292.88
2022-11-21T10:43:28.224Z,99290.25
2022-11-21T10:45:56.530Z,99252.59
2022-11-21T10:48:24.509Z,99279.97
2022-11-21T10:51:06.900Z,99263.81
2022-11-21T10:53:52.152Z,99259.28
2022-11-21T10:56:22.545Z,99259.16
2022-11-21T10:58:53.649Z,99258.06
2022-11-21T11:01:30.046Z,99250.94
2022-11-21T11:04:32.125Z,99244.16
2022-11-21T11:07:23.062Z,99256.94
2022-11-21T11:09:52.454Z,99241.22
2022-11-21T11:12:50.895Z,99232.19
2022-11-21T11:15:23.148Z,99224.53
2022-11-21T11:17:54.147Z,99238.50
2022-11-21T11:20:46.200Z,99240.69
2022-11-21T11:23:25.937Z,99235.00
2022-11-21T11:25:55.544Z,99155.47
2022-11-21T11:28:24.528Z,99088.06
2022-11-21T11:30:56.144Z,99165.25
2022-11-21T11:33:33.029Z,99192.84
2022-11-21T11:36:11.186Z,99233.16
2022-11-21T11:38:39.303Z,99217.63
2022-11-21T11:41:20.890Z,99224.13
2022-11-21T11:44:17.123Z,99218.00
2022-11-21T11:47:18.972Z,99211.09
2022-11-21T11:50:11.241Z,99179.03
2022-11-21T11:52:47.878Z,99200.38
2022-11-21T11:55:21.171Z,99193.69
2022-11-21T11:57:52.443Z,99198.44
2022-11-21T12:00:31.706Z,99182.94
2022-11-21T12:03:09.735Z,99181.38
2022-11-21T12:05:44.632Z,99178.56
2022-11-21T12:08:40.966Z,99164.50
2022-11-21T12:11:35.466Z,99180.69
2022-11-21T12:14:12.886Z,99179.41
2022-11-21T12:16:42.416Z,99158.13
2022-11-21T12:19:16.890Z,99161.69
2022-11-21T12:21:46.096Z,99143.31
2022-11-21T12:24:14.189Z,99145.94
2022-11-21T12:26:54.254Z,99145.41
2022-11-21T12:29:40.090Z,99144.16
2022-11-21T12:32:20.813Z,99142.38
2022-11-21T12:35:16.911Z,99140.84
2022-11-21T12:37:52.368Z,99056.50
2022-11-21T12:40:40.535Z,99109.16
2022-11-21T12:43:23.434Z,99124.03
2022-11-21T12:45:56.363Z,99119.94
2022-11-21T12:49:09.092Z,99123.34
2022-11-21T12:52:08.203Z,99130.38
2022-11-21T12:54:56.991Z,99115.47
2022-11-21T12:57:33.972Z,99052.34
2022-11-21T13:00:11.762Z,99114.59
2022-11-21T13:02:57.085Z,99081.56
2022-11-21T13:05:30.521Z,99098.44
2022-11-21T13:08:04.995Z,99070.22
2022-11-21T13:10:33.813Z,99080.78
2022-11-21T13:13:09.783Z,99078.06
2022-11-21T13:15:45.349Z,99084.09
2022-11-21T13:18:20.369Z,99078.50
2022-11-21T13:20:49.748Z,99070.00
2022-11-21T13:23:38.791Z,99056.50
2022-11-21T13:26:43.020Z,99067.91
2022-11-21T13:29:12.939Z,99071.91
2022-11-21T13:31:41.848Z,99070.41
2022-11-21T13:34:38.446Z,99059.41
2022-11-21T13:37:06.793Z,99069.19
2022-11-21T13:39:38.145Z,99065.44
2022-11-21T13:42:26.664Z,99064.44
2022-11-21T13:44:55.101Z,99050.34
2022-11-21T13:47:56.371Z,99046.84
2022-11-21T13:50:44.544Z,98953.28
2022-11-21T13:53:37.756Z,99067.97
2022-11-21T13:56:18.556Z,99067.66
2022-11-21T13:58:56.349Z,99043.69
2022-11-21T14:01:48.516Z,99060.75
2022-11-21T14:04:45.077Z,99055.00
2022-11-21T14:07:25.748Z,99056.94
2022-11-21T14:09:55.334Z,99044.09
2022-11-21T14:12:33.288Z,99042.09
2022-11-21T14:15:22.357Z,99014.22
2022-11-21T14:17:52.139Z,99012.59
2022-11-21T14:20:23.465Z,99029.44
2022-11-21T14:22:57.597Z,98986.84
2022-11-21T14:25:35.229Z,99024.91
2022-11-21T14:28:07.648Z,99028.53
2022-11-21T14:30:38.095Z,99020.56
2022-11-21T14:33:22.555Z,98981.53
2022-11-21T14:35:52.792Z,99010.81
2022-11-21T14:38:21.487Z,99007.81
2022-11-21T14:40:49.703Z,98998.81
2022-11-21T14:43:39.710Z,98993.56
2022-11-21T14:46:15.605Z,98975.72
2022-11-21T14:48:43.897Z,98982.22
2022-11-21T14:51:16.030Z,98973.34
2022-11-21T14:53:47.127Z,98978.66
2022-11-21T14:56:22.437Z,98984.69
2022-11-21T14:58:53.078Z,98973.25
2022-11-21T15:01:22.555Z,98967.16
2022-11-21T15:03:57.695Z,98957.66
2022-11-21T15:06:26.535Z,98956.88
2022-11-21T15:11:52.284Z,98950.94
2022-11-21T15:14:25.947Z,98862.44
2022-11-21T15:16:56.196Z,98947.63
2022-11-21T15:19:26.443Z,98940.06
2022-11-21T15:21:57.547Z,98934.78
2022-11-21T15:24:37.786Z,98936.72
2022-11-21T15:27:33.635Z,98912.38
2022-11-21T15:30:22.484Z,98928.09
2022-11-21T15:33:04.353Z,98910.44
2022-11-21T15:35:56.687Z,98929.56
2022-11-21T15:38:33.684Z,98928.75
2022-11-21T15:41:26.025Z,98918.19
2022-11-21T15:43:55.487Z,98928.44
2022-11-21T15:46:26.313Z,98917.00
2022-11-21T15:48:56.309Z,98922.38
2022-11-21T15:51:51.255Z,98882.03
2022-11-21T15:54:17.593Z,98907.19
2022-11-21T15:56:47.215Z,98910.69
2022-11-21T15:59:16.102Z,98888.13
2022-11-21T16:01:45.358Z,98908.31
2022-11-21T16:04:13.898Z,98904.97
2022-11-21T16:06:41.862Z,98895.41
2022-11-21T16:09:09.857Z,98898.97
2022-11-21T16:11:40.422Z,98867.81
2022-11-21T16:14:09.306Z,98822.81
2022-11-21T16:16:43.129Z,98879.19
2022-11-21T16:19:14.295Z,98890.44
2022-11-21T16:21:43.114Z,98881.66
2022-11-21T16:24:11.379Z,98836.38
2022-11-21T16:26:39.461Z,98863.09
2022-11-21T16:29:07.397Z,98843.97
2022-11-21T16:31:35.436Z,98873.34
2022-11-21T16:34:03.635Z,98869.91
2022-11-21T16:36:33.382Z,98858.50
2022-11-21T16:39:08.829Z,98829.50
2022-11-21T16:41:37.373Z,98808.44
2022-11-21T16:44:05.567Z,98834.91
2022-11-21T16:46:33.454Z,98831.03
2022-11-21T16:49:02.960Z,98761.59
2022-11-21T16:51:32.235Z,98818.75
2022-11-21T16:54:04.398Z,98781.38
2022-11-21T16:56:36.416Z,98819.59
2022-11-21T16:59:04.574Z,98807.28
2022-11-21T17:01:32.728Z,98717.09
2022-11-21T17:04:00.830Z,98797.44
2022-11-21T17:06:32.461Z,98791.06
2022-11-21T17:09:01.189Z,98792.75
2022-11-21T17:11:31.569Z,98786.53
2022-11-21T17:14:02.275Z,98776.91
2022-11-21T17:16:30.279Z,98772.00
2022-11-21T17:18:59.509Z,98776.41
2022-11-21T17:21:28.490Z,98765.88
2022-11-21T17:23:58.219Z,98759.72
2022-11-21T17:26:28.190Z,98760.50
2022-11-21T17:28:58.087Z,98747.28
2022-11-21T17:31:26.878Z,98732.88
2022-11-21T17:33:56.758Z,98746.00
2022-11-21T17:36:26.928Z,98740.06
2022-11-21T17:38:55.420Z,98727.75
2022-11-21T17:41:25.639Z,98726.69
2022-11-21T17:43:54.634Z,98722.06
2022-11-21T17:46:23.711Z,98727.50
2022-11-21T17:48:57.255Z,98726.50
2022-11-21T17:51:28.883Z,98677.78
2022-11-21T17:53:57.087Z,98708.03
2022-11-21T17:56:28.379Z,98691.78
2022-11-21T17:58:56.720Z,98698.97
2022-11-21T18:01:24.809Z,98688.38
2022-11-21T18:03:56.647Z,98692.41
2022-11-21T18:06:25.629Z,98689.56
2022-11-21T18:08:53.867Z,98683.38
2022-11-21T18:11:22.800Z,98675.34
2022-11-21T18:13:52.075Z,98574.88
2022-11-21T18:16:22.170Z,98669.94
2022-11-21T18:18:50.818Z,98663.56
2022-11-21T18:21:20.623Z,98668.75
2022-11-21T18:23:48.908Z,98648.59
2022-11-21T18:26:20.465Z,98651.16
2022-11-21T18:29:01.703Z,98640.78
2022-11-21T18:31:39.669Z,98608.00
2022-11-21T18:34:07.726Z,98646.84
2022-11-21T18:36:36.113Z,98617.41
2022-11-21T18:39:10.549Z,98609.56
2022-11-21T18:41:40.337Z,98640.91
2022-11-21T18:44:08.438Z,98524.13
2022-11-21T18:46:39.396Z,98632.06
2022-11-21T18:49:08.429Z,98570.59
2022-11-21T18:51:37.637Z,98637.44
2022-11-21T18:54:08.112Z,98631.19
2022-11-21T18:56:37.780Z,98629.28
2022-11-21T18:59:06.866Z,98582.25
2022-11-21T19:01:37.592Z,98616.91
2022-11-21T19:04:07.069Z,98597.94
2022-11-21T19:06:35.993Z,98609.75
2022-11-21T19:09:03.863Z,98598.34
2022-11-21T19:11:32.033Z,98428.94
2022-11-21T19:14:00.712Z,98594.59
2022-11-21T19:16:31.049Z,98592.56
2022-11-21T19:19:33.253Z,98557.75
2022-11-21T19:21:48.660Z,98477.09
2022-11-21T19:24:16.749Z,98562.53
2022-11-21T19:26:44.752Z,98567.03
2022-11-21T19:29:13.281Z,98497.81
2022-11-21T19:31:45.756Z,98576.66
2022-11-21T19:34:14.328Z,98574.94
2022-11-21T19:36:42.828Z,98588.97
2022-11-21T19:39:12.450Z,98594.25
2022-11-21T19:41:40.717Z,98603.09
2022-11-21T19:44:08.539Z,98603.84
2022-11-21T19:46:38.498Z,98561.63
2022-11-21T19:49:07.772Z,98577.34
2022-11-21T19:51:37.432Z,98594.34
2022-11-21T19:54:05.804Z,98600.56
2022-11-21T19:56:35.666Z,98466.34
2022-11-21T19:59:03.596Z,98574.06
2022-11-21T20:01:33.422Z,98585.22
2022-11-21T20:04:03.221Z,98400.22
2022-11-21T20:06:33.611Z,98590.38
2022-11-21T20:09:03.384Z,98578.56
2022-11-21T20:11:32.655Z,98584.03
2022-11-21T20:14:02.409Z,98572.59
2022-11-21T20:16:32.137Z,98557.84
2022-11-21T20:19:02.178Z,98457.47
2022-11-21T20:21:31.125Z,98578.34
2022-11-21T20:23:59.613Z,98595.41
2022-11-21T20:26:28.632Z,98601.75
2022-11-21T20:28:57.114Z,98613.09
2022-11-21T20:31:28.224Z,98608.88
2022-11-21T20:33:58.177Z,98612.63
2022-11-21T20:36:28.037Z,98582.41
2022-11-21T20:38:57.850Z,98593.50
2022-11-21T20:41:27.275Z,98586.78
2022-11-21T20:44:53.268Z,98611.56
2022-11-21T20:46:46.057Z,98612.53
2022-11-21T20:49:14.327Z,98601.16
2022-11-21T20:54:31.756Z,98611.16
2022-11-21T20:56:59.916Z,98591.16
2022-11-21T20:59:28.372Z,98584.94
2022-11-21T21:01:57.936Z,98567.13
2022-11-21T21:04:25.983Z,98561.72
2022-11-21T21:06:53.921Z,98567.00
2022-11-21T21:09:21.792Z,98539.50
2022-11-21T21:11:52.503Z,98499.56
2022-11-21T21:14:21.947Z,98568.16
2022-11-21T21:16:50.586Z,98524.84
2022-11-21T21:19:22.507Z,98561.06
2022-11-21T21:21:50.749Z,98563.28
2022-11-21T21:24:19.127Z,98469.75
2022-11-21T21:26:48.944Z,98566.75
2022-11-21T21:29:18.610Z,98564.09
2022-11-21T21:31:51.024Z,98557.84
2022-11-21T21:34:22.078Z,98540.56
2022-11-21T21:36:49.773Z,98555.47
2022-11-21T21:39:17.912Z,98548.47
2022-11-21T21:41:46.967Z,98546.63
2022-11-21T21:44:15.168Z,98358.28
2022-11-21T21:46:43.331Z,98440.00
2022-11-21T21:49:11.751Z,98519.41
2022-11-21T21:51:41.411Z,98524.34
2022-11-21T21:54:16.975Z,98522.50
2022-11-21T21:56:46.651Z,98507.81
2022-11-21T21:59:15.592Z,98507.88
2022-11-21T22:01:43.938Z,98494.81
2022-11-21T22:04:13.303Z,98478.44
2022-11-21T22:06:42.954Z,98468.09
2022-11-21T22:09:11.067Z,98492.19
2022-11-21T22:11:40.189Z,98481.78
2022-11-21T22:14:12.183Z,98478.16
2022-11-21T22:16:40.260Z,98441.78
2022-11-21T22:19:08.513Z,98472.84
2022-11-21T22:21:37.956Z,98466.72
2022-11-21T22:24:25.269Z,98446.88
2022-11-21T22:26:54.297Z,98463.31
2022-11-21T22:29:22.748Z,98464.25
2022-11-21T22:31:50.968Z,98430.91
2022-11-21T22:34:19.034Z,98448.72
2022-11-21T22:36:47.522Z,98447.06
2022-11-21T22:39:18.103Z,98379.59
2022-11-21T22:41:46.246Z,98359.53
2022-11-21T22:44:14.490Z,98436.16
2022-11-21T22:46:42.437Z,98418.19
2022-11-21T22:49:10.429Z,98294.97
2022-11-21T22:51:38.598Z,98401.16
2022-11-21T22:54:06.580Z,98419.94
2022-11-21T22:56:36.388Z,98418.22
2022-11-21T22:59:04.506Z,98421.78
2022-11-21T23:01:34.110Z,98405.44
2022-11-21T23:04:02.268Z,98422.00
2022-11-21T23:06:30.202Z,98422.72
2022-11-21T23:08:58.878Z,98367.47
2022-11-21T23:11:28.525Z,98426.25
2022-11-21T23:13:58.602Z,98420.00
2022-11-21T23:16:26.952Z,98414.88
2022-11-21T23:18:55.414Z,98404.44
2022-11-21T23:21:23.480Z,98416.47
2022-11-21T23:23:51.489Z,98409.38
2022-11-21T23:26:19.470Z,98405.72
2022-11-21T23:28:47.491Z,98410.91
2022-11-21T23:31:17.313Z,98407.41
2022-11-21T23:33:45.404Z,98377.41
2022-11-21T23:36:13.747Z,98416.25
2022-11-21T23:38:41.602Z,98262.91
2022-11-21T23:41:09.858Z,98413.50
2022-11-21T23:43:37.949Z,98415.31
2022-11-21T23:46:05.811Z,98376.25
2022-11-21T23:48:35.486Z,98398.66
2022-11-21T23:51:03.477Z,98397.44
2022-11-21T23:53:31.350Z,98260.28
2022-11-21T23:55:59.267Z,98395.75
2022-11-21T23:58:27.192Z,98385.91
